createdAt,value
2019-03-21T00:00:22.932Z,38.43
2019-03-21T00:02:53.156Z,38.46
2019-03-21T00:05:23.601Z,38.50
2019-03-21T00:07:53.833Z,38.47
2019-03-21T00:10:53.329Z,38.36
2019-03-21T00:13:23.576Z,38.40
2019-03-21T00:15:57.050Z,38.35
2019-03-21T00:18:27.378Z,38.40
2019-03-21T00:20:57.749Z,38.42
2019-03-21T00:23:27.924Z,38.36
2019-03-21T00:25:58.165Z,38.35
2019-03-21T00:28:28.385Z,38.38
2019-03-21T00:30:58.581Z,38.52
2019-03-21T00:33:28.819Z,38.47
2019-03-21T00:35:59.053Z,38.37
2019-03-21T00:38:29.290Z,38.37
2019-03-21T00:40:59.500Z,38.36
2019-03-21T00:43:29.805Z,38.31
2019-03-21T00:46:00.130Z,38.39
2019-03-21T00:48:30.455Z,38.49
2019-03-21T00:51:00.701Z,38.43
2019-03-21T00:53:30.923Z,38.47
2019-03-21T00:56:01.137Z,38.35
2019-03-21T00:58:31.465Z,38.26
2019-03-21T01:01:01.982Z,38.33
2019-03-21T01:03:32.202Z,38.37
2019-03-21T01:06:02.339Z,38.26
2019-03-21T01:08:32.573Z,38.24
2019-03-21T01:11:02.805Z,38.43
2019-03-21T01:13:34.443Z,38.40
2019-03-21T01:16:04.744Z,38.25
2019-03-21T01:18:35.288Z,38.44
2019-03-21T01:21:05.520Z,38.41
2019-03-21T01:23:35.752Z,38.31
2019-03-21T01:26:05.968Z,38.33
2019-03-21T01:28:36.282Z,38.35
2019-03-21T01:31:06.595Z,38.51
2019-03-21T01:33:36.732Z,38.45
2019-03-21T01:36:06.971Z,38.43
2019-03-21T01:38:37.194Z,38.60
2019-03-21T01:41:07.540Z,38.57
2019-03-21T01:43:37.833Z,38.60
2019-03-21T01:46:10.194Z,38.58
2019-03-21T01:48:40.516Z,38.61
2019-03-21T01:51:10.730Z,38.60
2019-03-21T01:53:40.889Z,38.51
2019-03-21T01:56:11.100Z,38.47
2019-03-21T01:58:41.346Z,38.57
2019-03-21T02:01:11.630Z,38.49
2019-03-21T02:03:41.858Z,38.47
2019-03-21T02:06:12.084Z,38.53
2019-03-21T02:08:42.325Z,38.66
2019-03-21T02:11:12.548Z,38.61
2019-03-21T02:13:42.863Z,38.57
2019-03-21T02:16:13.175Z,38.60
2019-03-21T02:18:43.501Z,38.76
2019-03-21T02:21:13.734Z,38.66
2019-03-21T02:23:43.985Z,38.71
2019-03-21T02:26:14.186Z,38.79
2019-03-21T02:28:44.501Z,38.64
2019-03-21T02:31:14.812Z,38.77
2019-03-21T02:33:45.152Z,38.75
2019-03-21T02:36:15.398Z,38.73
2019-03-21T02:38:45.602Z,38.71
2019-03-21T02:41:15.817Z,38.89
2019-03-21T02:43:46.140Z,38.89
2019-03-21T02:46:16.497Z,38.89
2019-03-21T02:48:46.786Z,38.93
2019-03-21T02:51:16.919Z,38.87
2019-03-21T02:53:47.155Z,38.90
2019-03-21T02:56:18.073Z,38.96
2019-03-21T02:58:48.334Z,39.00
2019-03-21T03:01:18.540Z,38.95
2019-03-21T03:03:48.871Z,39.01
2019-03-21T03:06:19.164Z,39.09
2019-03-21T03:08:49.299Z,39.15
2019-03-21T03:11:19.640Z,39.16
2019-03-21T03:13:50.360Z,39.08
2019-03-21T03:16:20.692Z,39.05
2019-03-21T03:18:50.814Z,39.11
2019-03-21T03:21:21.129Z,39.06
2019-03-21T03:23:51.336Z,39.06
2019-03-21T03:26:21.694Z,39.10
2019-03-21T03:28:51.811Z,39.12
2019-03-21T03:31:22.052Z,39.23
2019-03-21T03:33:52.269Z,39.21
2019-03-21T03:36:22.570Z,39.24
2019-03-21T03:38:52.776Z,39.25
2019-03-21T03:41:23.031Z,39.24
2019-03-21T03:43:53.242Z,39.13
2019-03-21T03:46:23.554Z,39.22
2019-03-21T03:48:53.875Z,39.16
2019-03-21T03:51:24.101Z,39.22
2019-03-21T03:53:54.231Z,39.18
2019-03-21T03:56:24.475Z,39.13
2019-03-21T03:58:55.192Z,39.11
2019-03-21T04:01:25.428Z,39.05
2019-03-21T04:03:55.633Z,39.04
2019-03-21T04:06:25.993Z,39.02
2019-03-21T04:08:56.271Z,39.07
2019-03-21T04:11:26.437Z,38.99
2019-03-21T04:13:56.627Z,38.99
2019-03-21T04:16:27.091Z,39.23
2019-03-21T04:18:57.304Z,38.97
2019-03-21T04:21:27.594Z,39.02
2019-03-21T04:23:59.833Z,39.14
2019-03-21T04:26:30.818Z,39.01
2019-03-21T04:29:01.045Z,38.92
2019-03-21T04:31:31.354Z,39.04
2019-03-21T04:34:03.147Z,39.05
2019-03-21T04:36:33.445Z,39.03
2019-03-21T04:39:04.626Z,39.12
2019-03-21T04:41:34.909Z,39.12
2019-03-21T04:44:05.230Z,39.09
2019-03-21T04:46:35.444Z,39.10
2019-03-21T04:49:05.601Z,39.17
2019-03-21T04:51:35.814Z,39.12
2019-03-21T04:54:06.317Z,38.98
2019-03-21T04:56:37.538Z,39.82
2019-03-21T04:59:07.754Z,39.38
2019-03-21T05:01:37.933Z,39.04
2019-03-21T05:04:08.275Z,39.19
2019-03-21T05:06:38.564Z,39.22
2019-03-21T05:09:12.093Z,39.42
2019-03-21T05:11:42.383Z,39.31
2019-03-21T05:14:12.557Z,39.48
2019-03-21T05:16:42.894Z,39.32
2019-03-21T05:19:13.077Z,39.37
2019-03-21T05:21:43.429Z,39.45
2019-03-21T05:24:13.717Z,39.52
2019-03-21T05:26:43.955Z,37.98
2019-03-21T05:29:13.899Z,38.69
2019-03-21T05:31:44.361Z,39.10
2019-03-21T05:34:14.609Z,38.95
2019-03-21T05:36:46.374Z,39.38
2019-03-21T05:39:16.604Z,38.83
2019-03-21T05:41:46.821Z,38.65
2019-03-21T05:44:24.933Z,38.33
2019-03-21T05:46:55.137Z,37.39
2019-03-21T05:49:25.373Z,37.30
2019-03-21T05:51:55.484Z,37.62
2019-03-21T05:54:25.638Z,37.69
2019-03-21T05:56:55.932Z,37.67
2019-03-21T05:59:26.263Z,36.07
2019-03-21T06:01:57.101Z,36.84
2019-03-21T06:04:27.430Z,36.57
2019-03-21T06:07:36.243Z,36.07
2019-03-21T06:10:08.949Z,35.76
2019-03-21T06:12:45.815Z,35.62
2019-03-21T06:15:18.694Z,35.48
2019-03-21T06:17:58.126Z,35.27
2019-03-21T06:20:53.207Z,35.06
2019-03-21T06:23:42.674Z,34.72
2019-03-21T06:26:50.515Z,34.61
2019-03-21T06:29:20.840Z,34.42
2019-03-21T06:31:50.777Z,34.11
2019-03-21T06:34:20.907Z,34.75
2019-03-21T06:36:51.131Z,36.56
2019-03-21T06:39:21.439Z,36.07
2019-03-21T06:41:51.746Z,36.31
2019-03-21T06:44:21.897Z,35.73
2019-03-21T06:46:52.118Z,35.78
2019-03-21T06:49:22.269Z,35.97
2019-03-21T06:51:52.457Z,35.95
2019-03-21T06:54:22.753Z,36.23
2019-03-21T06:56:52.909Z,36.19
2019-03-21T06:59:23.102Z,36.16
2019-03-21T07:01:53.324Z,36.25
2019-03-21T07:04:23.506Z,36.27
2019-03-21T07:06:53.684Z,36.46
2019-03-21T07:09:23.864Z,36.63
2019-03-21T07:11:54.044Z,36.62
2019-03-21T07:14:24.337Z,36.67
2019-03-21T07:17:00.439Z,36.70
2019-03-21T07:19:26.629Z,36.73
2019-03-21T07:21:56.857Z,36.84
2019-03-21T07:24:26.992Z,36.83
2019-03-21T07:26:57.232Z,36.86
2019-03-21T07:29:27.517Z,36.86
2019-03-21T07:31:57.745Z,36.82
2019-03-21T07:34:27.897Z,36.88
2019-03-21T07:36:58.106Z,36.96
2019-03-21T07:39:28.809Z,36.99
2019-03-21T07:42:01.213Z,37.00
2019-03-21T07:44:31.092Z,36.95
2019-03-21T07:47:12.027Z,36.95
2019-03-21T07:49:33.292Z,37.04
2019-03-21T07:52:03.524Z,36.95
2019-03-21T07:54:33.787Z,36.96
2019-03-21T07:57:04.002Z,37.01
2019-03-21T07:59:34.223Z,37.00
2019-03-21T08:02:04.520Z,37.01
2019-03-21T08:04:34.739Z,36.98
2019-03-21T08:07:04.919Z,37.02
2019-03-21T08:09:35.175Z,37.01
2019-03-21T08:12:05.335Z,37.03
2019-03-21T08:14:35.628Z,36.99
2019-03-21T08:17:06.068Z,36.98
2019-03-21T08:19:36.380Z,36.92
2019-03-21T08:22:06.541Z,37.04
2019-03-21T08:24:36.863Z,36.99
2019-03-21T08:27:07.085Z,37.04
2019-03-21T08:29:37.377Z,37.07
2019-03-21T08:32:07.706Z,37.06
2019-03-21T08:34:38.774Z,37.05
2019-03-21T08:37:09.003Z,37.00
2019-03-21T08:39:39.293Z,37.01
2019-03-21T08:42:09.636Z,37.00
2019-03-21T08:44:39.862Z,36.96
2019-03-21T08:47:10.096Z,36.99
2019-03-21T08:49:40.313Z,36.95
2019-03-21T08:52:10.619Z,36.95
2019-03-21T08:54:40.843Z,36.90
2019-03-21T08:57:10.977Z,37.15
2019-03-21T08:59:41.201Z,36.85
2019-03-21T09:02:11.422Z,36.83
2019-03-21T09:04:41.719Z,36.89
2019-03-21T09:07:11.954Z,37.20
2019-03-21T09:09:42.276Z,37.03
2019-03-21T09:12:12.481Z,37.13
2019-03-21T09:14:42.629Z,37.16
2019-03-21T09:17:12.883Z,37.09
2019-03-21T09:19:43.172Z,36.90
2019-03-21T09:22:15.939Z,36.82
2019-03-21T09:24:45.383Z,36.73
2019-03-21T09:27:15.598Z,36.24
2019-03-21T09:29:53.581Z,36.01
2019-03-21T09:32:17.813Z,35.89
2019-03-21T09:34:48.127Z,35.79
2019-03-21T09:37:18.421Z,35.79
2019-03-21T09:39:48.649Z,35.62
2019-03-21T09:42:18.996Z,35.58
2019-03-21T09:44:50.368Z,35.40
2019-03-21T09:47:20.746Z,35.41
2019-03-21T09:49:50.971Z,35.40
2019-03-21T09:52:21.208Z,35.44
2019-03-21T09:54:51.430Z,35.37
2019-03-21T09:57:21.846Z,35.30
2019-03-21T09:59:52.055Z,35.21
2019-03-21T10:02:22.285Z,35.19
2019-03-21T10:04:52.578Z,35.24
2019-03-21T10:07:22.755Z,35.28
2019-03-21T10:09:53.050Z,35.11
2019-03-21T10:12:23.288Z,35.05
2019-03-21T10:14:53.600Z,35.00
2019-03-21T10:17:23.853Z,34.90
2019-03-21T10:19:54.061Z,34.94
2019-03-21T10:22:24.306Z,34.87
2019-03-21T10:24:54.587Z,34.87
2019-03-21T10:27:24.922Z,34.99
2019-03-21T10:29:55.071Z,35.08
2019-03-21T10:32:25.291Z,35.25
2019-03-21T10:34:55.685Z,35.21
2019-03-21T10:37:26.764Z,35.17
2019-03-21T10:39:56.985Z,35.20
2019-03-21T10:42:27.224Z,35.09
2019-03-21T10:44:57.420Z,34.87
2019-03-21T10:47:27.729Z,34.86
2019-03-21T10:49:58.052Z,35.00
2019-03-21T10:52:28.265Z,34.85
2019-03-21T10:54:58.416Z,34.66
2019-03-21T10:57:28.636Z,34.69
2019-03-21T11:00:01.601Z,34.51
2019-03-21T11:02:30.898Z,34.34
2019-03-21T11:05:01.049Z,34.34
2019-03-21T11:07:31.274Z,34.31
2019-03-21T11:10:01.502Z,34.15
2019-03-21T11:12:31.795Z,34.10
2019-03-21T11:15:02.139Z,34.00
2019-03-21T11:17:32.375Z,33.85
2019-03-21T11:20:02.619Z,33.67
2019-03-21T11:22:32.815Z,33.59
2019-03-21T11:25:03.117Z,33.45
2019-03-21T11:27:33.338Z,33.52
2019-03-21T11:30:03.500Z,33.41
2019-03-21T11:32:33.795Z,33.33
2019-03-21T11:35:03.737Z,33.32
2019-03-21T11:37:34.229Z,33.34
2019-03-21T11:40:04.697Z,33.25
2019-03-21T11:42:34.996Z,33.10
2019-03-21T11:45:05.623Z,33.21
2019-03-21T11:47:41.583Z,32.85
2019-03-21T11:50:07.931Z,32.95
2019-03-21T11:52:40.921Z,32.81
2019-03-21T11:55:10.123Z,32.88
2019-03-21T11:57:40.337Z,32.72
2019-03-21T12:00:10.639Z,32.51
2019-03-21T12:02:40.879Z,32.35
2019-03-21T12:05:11.143Z,32.49
2019-03-21T12:07:41.347Z,32.24
2019-03-21T12:10:11.452Z,32.26
2019-03-21T12:12:41.770Z,32.46
2019-03-21T12:15:12.100Z,32.38
2019-03-21T12:17:42.334Z,32.29
2019-03-21T12:20:12.896Z,31.98
2019-03-21T12:22:43.026Z,31.98
2019-03-21T12:25:13.279Z,31.97
2019-03-21T12:27:43.511Z,31.81
2019-03-21T12:30:16.042Z,31.90
2019-03-21T12:32:46.308Z,31.84
2019-03-21T12:35:16.630Z,31.78
2019-03-21T12:37:46.964Z,31.80
2019-03-21T12:40:17.111Z,31.74
2019-03-21T12:42:47.434Z,31.71
2019-03-21T12:45:17.629Z,31.57
2019-03-21T12:47:47.957Z,31.62
2019-03-21T12:50:18.268Z,31.68
2019-03-21T12:52:48.564Z,31.35
2019-03-21T12:55:18.742Z,31.44
2019-03-21T12:57:48.955Z,31.81
2019-03-21T13:00:30.640Z,32.17
2019-03-21T13:03:01.034Z,32.27
2019-03-21T13:05:31.308Z,32.42
2019-03-21T13:08:01.613Z,32.52
2019-03-21T13:10:31.847Z,32.63
2019-03-21T13:13:02.161Z,32.72
2019-03-21T13:15:32.309Z,32.88
2019-03-21T13:18:02.513Z,32.75
2019-03-21T13:20:32.752Z,33.08
2019-03-21T13:23:03.059Z,33.29
2019-03-21T13:25:33.376Z,33.50
2019-03-21T13:28:03.615Z,33.85
2019-03-21T13:30:33.860Z,34.34
2019-03-21T13:33:04.049Z,34.59
2019-03-21T13:35:34.374Z,34.35
2019-03-21T13:38:04.796Z,34.29
2019-03-21T13:40:35.030Z,34.13
2019-03-21T13:43:05.346Z,34.05
2019-03-21T13:45:35.695Z,34.04
2019-03-21T13:48:05.912Z,33.88
2019-03-21T13:50:35.896Z,33.69
2019-03-21T13:53:17.808Z,33.72
2019-03-21T13:55:37.723Z,33.63
2019-03-21T13:58:08.009Z,33.51
2019-03-21T14:00:40.872Z,33.24
2019-03-21T14:03:10.198Z,32.91
2019-03-21T14:05:40.383Z,32.71
2019-03-21T14:08:10.772Z,32.60
2019-03-21T14:10:40.997Z,32.51
2019-03-21T14:13:11.302Z,32.44
2019-03-21T14:15:41.525Z,32.31
2019-03-21T14:18:11.768Z,32.12
2019-03-21T14:20:41.984Z,32.03
2019-03-21T14:23:17.242Z,31.85
2019-03-21T14:25:44.180Z,31.75
2019-03-21T14:28:14.481Z,31.64
2019-03-21T14:30:44.800Z,31.66
2019-03-21T14:33:15.134Z,31.51
2019-03-21T14:35:45.070Z,31.47
2019-03-21T14:38:25.785Z,31.45
2019-03-21T14:40:47.251Z,31.34
2019-03-21T14:43:17.559Z,31.26
2019-03-21T14:45:47.887Z,31.24
2019-03-21T14:48:18.035Z,31.31
2019-03-21T14:50:48.253Z,31.15
2019-03-21T14:53:28.247Z,31.10
2019-03-21T14:55:50.341Z,31.12
2019-03-21T14:58:20.633Z,31.03
2019-03-21T15:00:50.803Z,30.74
2019-03-21T15:03:20.931Z,30.77
2019-03-21T15:05:51.131Z,30.74
2019-03-21T15:08:21.423Z,30.59
2019-03-21T15:10:51.650Z,30.52
2019-03-21T15:13:21.998Z,30.49
2019-03-21T15:15:52.126Z,30.23
2019-03-21T15:18:22.335Z,30.26
2019-03-21T15:20:52.646Z,30.25
2019-03-21T15:23:22.862Z,30.28
2019-03-21T15:25:53.401Z,30.05
2019-03-21T15:28:23.713Z,29.95
2019-03-21T15:30:53.843Z,29.92
2019-03-21T15:33:24.084Z,29.90
2019-03-21T15:35:54.316Z,29.59
2019-03-21T15:38:27.519Z,29.48
2019-03-21T15:40:56.570Z,29.33
2019-03-21T15:43:26.909Z,29.31
2019-03-21T15:45:57.142Z,29.23
2019-03-21T15:48:27.381Z,29.68
2019-03-21T15:51:04.535Z,30.14
2019-03-21T15:53:29.538Z,30.44
2019-03-21T15:55:59.863Z,30.70
2019-03-21T15:58:30.204Z,30.81
2019-03-21T16:01:00.257Z,31.09
2019-03-21T16:03:30.445Z,31.00
2019-03-21T16:06:00.747Z,31.22
2019-03-21T16:08:31.086Z,31.17
2019-03-21T16:11:01.394Z,31.26
2019-03-21T16:13:31.555Z,31.29
2019-03-21T16:16:01.758Z,31.40
2019-03-21T16:18:32.070Z,31.46
2019-03-21T16:21:02.389Z,31.50
2019-03-21T16:23:32.728Z,31.26
2019-03-21T16:26:02.961Z,31.35
2019-03-21T16:28:33.188Z,31.45
2019-03-21T16:31:03.396Z,31.52
2019-03-21T16:33:33.612Z,31.45
2019-03-21T16:36:03.947Z,31.49
2019-03-21T16:38:34.180Z,31.41
2019-03-21T16:41:04.421Z,31.42
2019-03-21T16:43:34.688Z,31.34
2019-03-21T16:46:05.039Z,31.44
2019-03-21T16:48:35.357Z,31.48
2019-03-21T16:51:05.586Z,31.77
2019-03-21T16:53:35.817Z,31.82
2019-03-21T16:56:06.049Z,32.10
2019-03-21T16:58:36.268Z,32.22
2019-03-21T17:01:06.738Z,32.03
2019-03-21T17:03:36.899Z,32.35
2019-03-21T17:06:07.234Z,33.04
2019-03-21T17:08:37.486Z,33.41
2019-03-21T17:11:07.725Z,33.35
2019-03-21T17:13:37.931Z,34.51
2019-03-21T17:16:08.221Z,34.48
2019-03-21T17:18:38.547Z,33.82
2019-03-21T17:21:09.738Z,33.85
2019-03-21T17:23:40.049Z,34.62
2019-03-21T17:26:10.473Z,34.87
2019-03-21T17:28:40.775Z,34.94
2019-03-21T17:31:11.102Z,35.09
2019-03-21T17:33:41.345Z,35.39
2019-03-21T17:36:11.655Z,35.24
2019-03-21T17:38:41.880Z,36.29
2019-03-21T17:41:12.188Z,36.24
2019-03-21T17:43:42.568Z,36.58
2019-03-21T17:46:12.765Z,36.79
2019-03-21T17:48:42.989Z,36.75
2019-03-21T17:51:13.213Z,36.63
2019-03-21T17:53:43.684Z,36.67
2019-03-21T17:56:13.940Z,36.50
2019-03-21T17:58:44.189Z,36.68
2019-03-21T18:01:14.413Z,36.61
2019-03-21T18:03:44.358Z,36.74
2019-03-21T18:06:14.633Z,36.30
2019-03-21T18:08:44.877Z,36.37
2019-03-21T18:11:14.975Z,36.41
2019-03-21T18:13:45.199Z,36.65
2019-03-21T18:16:15.558Z,36.91
2019-03-21T18:18:45.838Z,37.20
2019-03-21T18:21:16.110Z,37.07
2019-03-21T18:23:46.308Z,37.00
2019-03-21T18:26:16.535Z,36.91
2019-03-21T18:28:46.843Z,36.93
2019-03-21T18:31:17.157Z,36.99
2019-03-21T18:33:47.390Z,36.93
2019-03-21T18:36:17.631Z,36.87
2019-03-21T18:38:58.781Z,37.19
2019-03-21T18:41:19.958Z,36.91
2019-03-21T18:43:50.146Z,37.08
2019-03-21T18:46:20.443Z,37.45
2019-03-21T18:48:50.588Z,37.66
2019-03-21T18:51:20.798Z,37.51
2019-03-21T18:53:51.052Z,37.83
2019-03-21T18:56:21.334Z,37.72
2019-03-21T18:58:51.561Z,37.62
2019-03-21T19:01:21.801Z,37.53
2019-03-21T19:03:51.771Z,37.42
2019-03-21T19:06:22.018Z,37.54
2019-03-21T19:08:52.257Z,37.49
2019-03-21T19:11:22.484Z,37.61
2019-03-21T19:13:52.708Z,37.55
2019-03-21T19:16:22.927Z,37.61
2019-03-21T19:18:53.277Z,37.43
2019-03-21T19:21:23.565Z,37.55
2019-03-21T19:23:53.690Z,37.51
2019-03-21T19:26:23.928Z,37.66
2019-03-21T19:28:54.246Z,37.58
2019-03-21T19:31:24.561Z,37.50
2019-03-21T19:33:54.877Z,37.50
2019-03-21T19:36:25.138Z,37.40
2019-03-21T19:38:55.359Z,37.41
2019-03-21T19:41:25.582Z,37.38
2019-03-21T19:43:55.874Z,37.38
2019-03-21T19:46:26.251Z,37.41
2019-03-21T19:48:56.520Z,37.27
2019-03-21T19:51:26.678Z,37.28
2019-03-21T19:53:56.941Z,37.17
2019-03-21T19:56:27.193Z,37.47
2019-03-21T19:58:57.521Z,37.42
2019-03-21T20:01:27.651Z,37.78
2019-03-21T20:03:57.896Z,37.86
2019-03-21T20:06:28.109Z,37.97
2019-03-21T20:08:58.418Z,37.89
2019-03-21T20:11:28.633Z,38.22
2019-03-21T20:13:58.789Z,38.07
2019-03-21T20:16:29.001Z,38.20
2019-03-21T20:18:59.252Z,38.10
2019-03-21T20:21:29.528Z,38.12
2019-03-21T20:23:59.856Z,38.21
2019-03-21T20:26:30.176Z,38.10
2019-03-21T20:29:00.320Z,38.20
2019-03-21T20:31:30.550Z,38.07
2019-03-21T20:34:00.769Z,38.18
2019-03-21T20:36:30.971Z,38.11
2019-03-21T20:39:01.332Z,38.17
2019-03-21T20:41:31.534Z,38.17
2019-03-21T20:44:01.764Z,38.06
2019-03-21T20:46:31.985Z,38.12
2019-03-21T20:49:02.284Z,38.04
2019-03-21T20:51:32.507Z,38.07
2019-03-21T20:54:02.640Z,38.05
2019-03-21T20:56:32.890Z,38.14
2019-03-21T20:59:03.085Z,38.23
2019-03-21T21:01:33.405Z,38.07
2019-03-21T21:04:03.842Z,38.13
2019-03-21T21:06:34.084Z,38.13
2019-03-21T21:09:05.474Z,38.12
2019-03-21T21:11:35.729Z,38.06
2019-03-21T21:14:06.058Z,38.13
2019-03-21T21:16:36.377Z,38.15
2019-03-21T21:19:06.674Z,38.24
2019-03-21T21:21:36.859Z,38.17
2019-03-21T21:24:07.064Z,38.13
2019-03-21T21:26:37.385Z,38.23
2019-03-21T21:29:07.615Z,38.19
2019-03-21T21:31:37.850Z,38.13
2019-03-21T21:34:08.058Z,38.17
2019-03-21T21:36:38.284Z,38.37
2019-03-21T21:39:09.320Z,38.21
2019-03-21T21:41:39.446Z,38.20
2019-03-21T21:44:09.744Z,38.25
2019-03-21T21:46:39.982Z,38.19
2019-03-21T21:49:12.929Z,38.23
2019-03-21T21:51:42.179Z,38.30
2019-03-21T21:54:12.414Z,38.39
2019-03-21T21:56:42.630Z,38.47
2019-03-21T21:59:12.928Z,38.42
2019-03-21T22:01:43.163Z,38.34
2019-03-21T22:04:13.289Z,38.38
2019-03-21T22:06:43.531Z,38.42
2019-03-21T22:09:13.733Z,38.54
2019-03-21T22:11:44.052Z,38.47
2019-03-21T22:14:14.270Z,38.45
2019-03-21T22:16:44.412Z,38.46
2019-03-21T22:19:14.647Z,38.52
2019-03-21T22:21:44.857Z,38.53
2019-03-21T22:24:15.167Z,38.50
2019-03-21T22:26:45.510Z,38.59
2019-03-21T22:29:15.803Z,38.68
2019-03-21T22:31:45.957Z,38.70
2019-03-21T22:34:18.938Z,38.59
2019-03-21T22:36:49.624Z,38.61
2019-03-21T22:39:19.989Z,38.66
2019-03-21T22:41:50.312Z,38.54
2019-03-21T22:44:20.544Z,38.62
2019-03-21T22:46:50.778Z,38.58
2019-03-21T22:49:20.992Z,38.56
2019-03-21T22:51:51.244Z,38.52
2019-03-21T22:54:21.521Z,38.52
2019-03-21T22:56:51.744Z,38.56
2019-03-21T22:59:21.980Z,38.54
2019-03-21T23:01:52.211Z,38.46
2019-03-21T23:04:22.433Z,38.49
2019-03-21T23:06:52.741Z,38.57
2019-03-21T23:09:22.994Z,38.55
2019-03-21T23:11:53.288Z,38.59
2019-03-21T23:14:23.417Z,38.53
2019-03-21T23:16:53.648Z,38.54
2019-03-21T23:19:23.878Z,38.53
2019-03-21T23:21:54.173Z,38.60
2019-03-21T23:24:24.320Z,38.58
2019-03-21T23:26:54.537Z,38.54
2019-03-21T23:29:24.716Z,38.71
2019-03-21T23:31:54.964Z,38.78
2019-03-21T23:34:25.109Z,38.78
2019-03-21T23:36:55.334Z,38.87
2019-03-21T23:39:25.558Z,38.84
2019-03-21T23:41:55.857Z,38.93
2019-03-21T23:44:26.089Z,39.00
2019-03-21T23:46:56.318Z,39.03
2019-03-21T23:49:26.561Z,39.04
2019-03-21T23:51:56.850Z,38.97
2019-03-21T23:54:27.087Z,38.90
2019-03-21T23:57:04.389Z,38.79
2019-03-21T23:59:29.368Z,38.82
